sensor_id;sensor_type;location;lat;lon;timestamp;P1;durP1;ratioP1;P2;durP2;ratioP2
64011;SDS011;50211;52.768;12.124;2022-08-21T00:02:18;4.65;;;1.40;;
64011;SDS011;50211;52.768;12.124;2022-08-21T00:04:46;2.28;;;1.55;;
64011;SDS011;50211;52.768;12.124;2022-08-21T00:07:13;3.10;;;1.63;;
64011;SDS011;50211;52.768;12.124;2022-08-21T00:09:39;9.82;;;2.22;;
64011;SDS011;50211;52.768;12.124;2022-08-21T00:12:05;6.15;;;1.83;;
64011;SDS011;50211;52.768;12.124;2022-08-21T00:14:31;4.18;;;1.25;;
64011;SDS011;50211;52.768;12.124;2022-08-21T00:16:57;3.25;;;1.50;;
64011;SDS011;50211;52.768;12.124;2022-08-21T00:19:23;5.93;;;1.52;;
64011;SDS011;50211;52.768;12.124;2022-08-21T00:21:50;4.45;;;1.58;;
64011;SDS011;50211;52.768;12.124;2022-08-21T00:24:17;3.70;;;1.75;;
64011;SDS011;50211;52.768;12.124;2022-08-21T00:26:43;3.50;;;1.70;;
64011;SDS011;50211;52.768;12.124;2022-08-21T00:29:09;5.65;;;1.63;;
64011;SDS011;50211;52.768;12.124;2022-08-21T00:31:34;5.90;;;1.95;;
64011;SDS011;50211;52.768;12.124;2022-08-21T00:34:01;5.45;;;1.45;;
64011;SDS011;50211;52.768;12.124;2022-08-21T00:36:27;3.83;;;1.63;;
64011;SDS011;50211;52.768;12.124;2022-08-21T00:38:52;5.00;;;1.95;;
64011;SDS011;50211;52.768;12.124;2022-08-21T00:41:18;3.65;;;1.60;;
64011;SDS011;50211;52.768;12.124;2022-08-21T00:43:43;6.07;;;1.50;;
64011;SDS011;50211;52.768;12.124;2022-08-21T00:46:09;2.97;;;1.33;;
64011;SDS011;50211;52.768;12.124;2022-08-21T00:48:35;3.13;;;1.55;;
64011;SDS011;50211;52.768;12.124;2022-08-21T00:51:02;3.83;;;1.83;;
64011;SDS011;50211;52.768;12.124;2022-08-21T00:53:35;6.85;;;1.42;;
64011;SDS011;50211;52.768;12.124;2022-08-21T00:56:04;9.00;;;1.65;;
64011;SDS011;50211;52.768;12.124;2022-08-21T00:58:31;2.90;;;1.27;;
64011;SDS011;50211;52.768;12.124;2022-08-21T01:01:01;4.30;;;1.98;;
64011;SDS011;50211;52.768;12.124;2022-08-21T01:03:29;4.72;;;1.90;;
64011;SDS011;50211;52.768;12.124;2022-08-21T01:05:54;9.93;;;1.92;;
64011;SDS011;50211;52.768;12.124;2022-08-21T01:08:20;2.53;;;1.23;;
64011;SDS011;50211;52.768;12.124;2022-08-21T01:10:46;8.25;;;1.63;;
64011;SDS011;50211;52.768;12.124;2022-08-21T01:13:13;8.07;;;1.70;;
64011;SDS011;50211;52.768;12.124;2022-08-21T01:15:42;9.68;;;1.80;;
64011;SDS011;50211;52.768;12.124;2022-08-21T01:18:09;6.43;;;1.83;;
64011;SDS011;50211;52.768;12.124;2022-08-21T01:20:37;4.88;;;1.40;;
64011;SDS011;50211;52.768;12.124;2022-08-21T01:23:06;5.88;;;1.98;;
64011;SDS011;50211;52.768;12.124;2022-08-21T01:25:33;6.43;;;1.98;;
64011;SDS011;50211;52.768;12.124;2022-08-21T01:28:00;2.88;;;1.33;;
64011;SDS011;50211;52.768;12.124;2022-08-21T01:30:31;2.60;;;1.60;;
64011;SDS011;50211;52.768;12.124;2022-08-21T01:32:59;9.30;;;2.13;;
64011;SDS011;50211;52.768;12.124;2022-08-21T01:35:25;3.78;;;1.55;;
64011;SDS011;50211;52.768;12.124;2022-08-21T01:37:51;2.70;;;1.30;;
64011;SDS011;50211;52.768;12.124;2022-08-21T01:40:17;5.57;;;1.67;;
64011;SDS011;50211;52.768;12.124;2022-08-21T01:42:44;8.75;;;2.08;;
64011;SDS011;50211;52.768;12.124;2022-08-21T01:45:10;4.65;;;1.50;;
64011;SDS011;50211;52.768;12.124;2022-08-21T01:47:37;5.20;;;1.80;;
64011;SDS011;50211;52.768;12.124;2022-08-21T01:50:04;6.95;;;2.08;;
64011;SDS011;50211;52.768;12.124;2022-08-21T01:52:31;5.78;;;1.83;;
64011;SDS011;50211;52.768;12.124;2022-08-21T01:54:57;4.00;;;1.48;;
64011;SDS011;50211;52.768;12.124;2022-08-21T01:57:22;3.75;;;1.60;;
64011;SDS011;50211;52.768;12.124;2022-08-21T01:59:48;4.85;;;1.65;;
64011;SDS011;50211;52.768;12.124;2022-08-21T02:02:14;4.75;;;1.77;;
64011;SDS011;50211;52.768;12.124;2022-08-21T02:04:39;8.50;;;1.88;;
64011;SDS011;50211;52.768;12.124;2022-08-21T02:07:04;3.70;;;1.80;;
64011;SDS011;50211;52.768;12.124;2022-08-21T02:09:30;3.40;;;1.70;;
64011;SDS011;50211;52.768;12.124;2022-08-21T02:11:56;6.03;;;1.80;;
64011;SDS011;50211;52.768;12.124;2022-08-21T02:14:21;6.05;;;2.00;;
64011;SDS011;50211;52.768;12.124;2022-08-21T02:16:47;2.97;;;1.40;;
64011;SDS011;50211;52.768;12.124;2022-08-21T02:19:13;6.25;;;1.77;;
64011;SDS011;50211;52.768;12.124;2022-08-21T02:21:40;4.47;;;1.70;;
64011;SDS011;50211;52.768;12.124;2022-08-21T02:24:06;7.57;;;1.83;;
64011;SDS011;50211;52.768;12.124;2022-08-21T02:26:32;5.32;;;1.75;;
64011;SDS011;50211;52.768;12.124;2022-08-21T02:28:59;6.13;;;2.08;;
64011;SDS011;50211;52.768;12.124;2022-08-21T02:31:25;3.47;;;1.42;;
64011;SDS011;50211;52.768;12.124;2022-08-21T02:33:51;6.80;;;2.05;;
64011;SDS011;50211;52.768;12.124;2022-08-21T02:36:16;4.18;;;1.80;;
64011;SDS011;50211;52.768;12.124;2022-08-21T02:38:42;3.67;;;1.52;;
64011;SDS011;50211;52.768;12.124;2022-08-21T02:41:10;3.58;;;2.00;;
64011;SDS011;50211;52.768;12.124;2022-08-21T02:43:38;4.43;;;1.75;;
64011;SDS011;50211;52.768;12.124;2022-08-21T02:46:05;4.22;;;1.67;;
64011;SDS011;50211;52.768;12.124;2022-08-21T02:48:32;4.93;;;1.60;;
64011;SDS011;50211;52.768;12.124;2022-08-21T02:50:59;7.55;;;2.10;;
64011;SDS011;50211;52.768;12.124;2022-08-21T02:53:27;4.80;;;1.83;;
64011;SDS011;50211;52.768;12.124;2022-08-21T02:55:55;6.38;;;2.15;;
64011;SDS011;50211;52.768;12.124;2022-08-21T02:58:23;4.80;;;2.00;;
64011;SDS011;50211;52.768;12.124;2022-08-21T03:00:51;8.50;;;1.90;;
64011;SDS011;50211;52.768;12.124;2022-08-21T03:03:17;7.32;;;2.20;;
64011;SDS011;50211;52.768;12.124;2022-08-21T03:05:43;4.22;;;1.92;;
64011;SDS011;50211;52.768;12.124;2022-08-21T03:08:09;5.20;;;1.55;;
64011;SDS011;50211;52.768;12.124;2022-08-21T03:10:42;3.67;;;1.75;;
64011;SDS011;50211;52.768;12.124;2022-08-21T03:13:09;7.15;;;1.80;;
64011;SDS011;50211;52.768;12.124;2022-08-21T03:15:36;6.55;;;1.60;;
64011;SDS011;50211;52.768;12.124;2022-08-21T03:18:02;2.20;;;1.63;;
64011;SDS011;50211;52.768;12.124;2022-08-21T03:20:29;4.30;;;1.90;;
64011;SDS011;50211;52.768;12.124;2022-08-21T03:22:57;6.68;;;2.08;;
64011;SDS011;50211;52.768;12.124;2022-08-21T03:25:23;2.30;;;1.70;;
64011;SDS011;50211;52.768;12.124;2022-08-21T03:27:50;3.90;;;1.73;;
64011;SDS011;50211;52.768;12.124;2022-08-21T03:30:16;3.97;;;1.70;;
64011;SDS011;50211;52.768;12.124;2022-08-21T03:32:44;4.47;;;1.73;;
64011;SDS011;50211;52.768;12.124;2022-08-21T03:35:11;3.40;;;1.95;;
64011;SDS011;50211;52.768;12.124;2022-08-21T03:37:37;3.78;;;1.58;;
64011;SDS011;50211;52.768;12.124;2022-08-21T03:40:04;3.22;;;1.90;;
64011;SDS011;50211;52.768;12.124;2022-08-21T03:42:30;4.35;;;2.00;;
64011;SDS011;50211;52.768;12.124;2022-08-21T03:44:56;8.23;;;1.80;;
64011;SDS011;50211;52.768;12.124;2022-08-21T03:47:21;3.75;;;1.75;;
64011;SDS011;50211;52.768;12.124;2022-08-21T03:49:47;3.20;;;1.70;;
64011;SDS011;50211;52.768;12.124;2022-08-21T03:52:13;5.18;;;1.75;;
64011;SDS011;50211;52.768;12.124;2022-08-21T03:54:38;8.23;;;2.28;;
64011;SDS011;50211;52.768;12.124;2022-08-21T03:57:06;8.75;;;1.60;;
64011;SDS011;50211;52.768;12.124;2022-08-21T03:59:32;8.15;;;2.20;;
64011;SDS011;50211;52.768;12.124;2022-08-21T04:01:58;6.05;;;2.05;;
64011;SDS011;50211;52.768;12.124;2022-08-21T04:04:26;3.95;;;1.98;;
64011;SDS011;50211;52.768;12.124;2022-08-21T04:06:52;6.32;;;1.85;;
64011;SDS011;50211;52.768;12.124;2022-08-21T04:09:18;3.55;;;1.58;;
64011;SDS011;50211;52.768;12.124;2022-08-21T04:11:44;4.78;;;1.77;;
64011;SDS011;50211;52.768;12.124;2022-08-21T04:14:10;5.85;;;2.00;;
64011;SDS011;50211;52.768;12.124;2022-08-21T04:16:36;4.72;;;2.00;;
64011;SDS011;50211;52.768;12.124;2022-08-21T04:19:02;4.13;;;2.03;;
64011;SDS011;50211;52.768;12.124;2022-08-21T04:21:28;6.47;;;2.20;;
64011;SDS011;50211;52.768;12.124;2022-08-21T04:23:54;7.90;;;1.92;;
64011;SDS011;50211;52.768;12.124;2022-08-21T04:26:20;6.57;;;2.10;;
64011;SDS011;50211;52.768;12.124;2022-08-21T04:28:46;4.68;;;2.08;;
64011;SDS011;50211;52.768;12.124;2022-08-21T04:31:11;5.75;;;2.10;;
64011;SDS011;50211;52.768;12.124;2022-08-21T04:33:37;5.80;;;2.08;;
64011;SDS011;50211;52.768;12.124;2022-08-21T04:36:02;4.28;;;1.75;;
64011;SDS011;50211;52.768;12.124;2022-08-21T04:38:28;6.93;;;2.22;;
64011;SDS011;50211;52.768;12.124;2022-08-21T04:40:56;5.43;;;2.20;;
64011;SDS011;50211;52.768;12.124;2022-08-21T04:43:22;5.15;;;1.95;;
64011;SDS011;50211;52.768;12.124;2022-08-21T04:45:48;5.68;;;2.03;;
64011;SDS011;50211;52.768;12.124;2022-08-21T04:48:17;9.07;;;2.50;;
64011;SDS011;50211;52.768;12.124;2022-08-21T04:50:47;15.25;;;2.47;;
64011;SDS011;50211;52.768;12.124;2022-08-21T04:53:34;6.18;;;2.40;;
64011;SDS011;50211;52.768;12.124;2022-08-21T04:57:07;6.47;;;2.45;;
64011;SDS011;50211;52.768;12.124;2022-08-21T04:59:05;7.25;;;2.10;;
64011;SDS011;50211;52.768;12.124;2022-08-21T05:01:38;4.75;;;2.25;;
64011;SDS011;50211;52.768;12.124;2022-08-21T05:04:05;8.38;;;2.97;;
64011;SDS011;50211;52.768;12.124;2022-08-21T05:06:35;5.55;;;2.30;;
64011;SDS011;50211;52.768;12.124;2022-08-21T05:09:03;11.93;;;2.38;;
64011;SDS011;50211;52.768;12.124;2022-08-21T05:11:31;6.53;;;2.55;;
64011;SDS011;50211;52.768;12.124;2022-08-21T05:13:58;6.28;;;2.55;;
64011;SDS011;50211;52.768;12.124;2022-08-21T05:16:23;4.78;;;2.20;;
64011;SDS011;50211;52.768;12.124;2022-08-21T05:18:49;4.60;;;2.35;;
64011;SDS011;50211;52.768;12.124;2022-08-21T05:21:15;4.28;;;2.13;;
64011;SDS011;50211;52.768;12.124;2022-08-21T05:23:40;5.20;;;2.50;;
64011;SDS011;50211;52.768;12.124;2022-08-21T05:26:06;13.32;;;2.58;;
64011;SDS011;50211;52.768;12.124;2022-08-21T05:28:31;3.22;;;2.08;;
64011;SDS011;50211;52.768;12.124;2022-08-21T05:30:57;4.35;;;2.67;;
64011;SDS011;50211;52.768;12.124;2022-08-21T05:33:23;6.60;;;2.53;;
64011;SDS011;50211;52.768;12.124;2022-08-21T05:35:49;6.20;;;3.00;;
64011;SDS011;50211;52.768;12.124;2022-08-21T05:38:16;5.30;;;2.67;;
64011;SDS011;50211;52.768;12.124;2022-08-21T05:40:42;10.93;;;3.20;;
64011;SDS011;50211;52.768;12.124;2022-08-21T05:43:08;9.85;;;3.05;;
64011;SDS011;50211;52.768;12.124;2022-08-21T05:45:33;11.55;;;3.33;;
64011;SDS011;50211;52.768;12.124;2022-08-21T05:48:08;7.80;;;3.10;;
64011;SDS011;50211;52.768;12.124;2022-08-21T05:50:43;10.95;;;2.72;;
64011;SDS011;50211;52.768;12.124;2022-08-21T05:53:09;11.50;;;2.83;;
64011;SDS011;50211;52.768;12.124;2022-08-21T05:55:36;10.02;;;2.88;;
64011;SDS011;50211;52.768;12.124;2022-08-21T05:58:03;6.55;;;2.75;;
64011;SDS011;50211;52.768;12.124;2022-08-21T06:00:29;5.35;;;2.65;;
64011;SDS011;50211;52.768;12.124;2022-08-21T06:02:54;11.30;;;3.17;;
64011;SDS011;50211;52.768;12.124;2022-08-21T06:05:20;5.28;;;2.22;;
64011;SDS011;50211;52.768;12.124;2022-08-21T06:07:46;9.25;;;2.50;;
64011;SDS011;50211;52.768;12.124;2022-08-21T06:10:11;7.72;;;2.55;;
64011;SDS011;50211;52.768;12.124;2022-08-21T06:12:37;5.63;;;2.58;;
64011;SDS011;50211;52.768;12.124;2022-08-21T06:15:03;7.18;;;2.67;;
64011;SDS011;50211;52.768;12.124;2022-08-21T06:17:29;4.57;;;2.63;;
64011;SDS011;50211;52.768;12.124;2022-08-21T06:19:54;6.28;;;2.75;;
64011;SDS011;50211;52.768;12.124;2022-08-21T06:22:20;6.25;;;2.30;;
64011;SDS011;50211;52.768;12.124;2022-08-21T06:24:46;9.95;;;2.65;;
64011;SDS011;50211;52.768;12.124;2022-08-21T06:27:12;5.65;;;2.55;;
64011;SDS011;50211;52.768;12.124;2022-08-21T06:29:37;8.50;;;2.55;;
64011;SDS011;50211;52.768;12.124;2022-08-21T06:32:03;4.95;;;2.97;;
64011;SDS011;50211;52.768;12.124;2022-08-21T06:34:31;5.00;;;2.33;;
64011;SDS011;50211;52.768;12.124;2022-08-21T06:36:57;9.50;;;2.60;;
64011;SDS011;50211;52.768;12.124;2022-08-21T06:39:22;5.35;;;2.53;;
64011;SDS011;50211;52.768;12.124;2022-08-21T06:41:48;5.82;;;2.85;;
64011;SDS011;50211;52.768;12.124;2022-08-21T06:44:15;5.93;;;3.03;;
64011;SDS011;50211;52.768;12.124;2022-08-21T06:46:41;3.70;;;2.50;;
64011;SDS011;50211;52.768;12.124;2022-08-21T06:49:06;7.93;;;2.97;;
64011;SDS011;50211;52.768;12.124;2022-08-21T06:51:32;6.82;;;3.00;;
64011;SDS011;50211;52.768;12.124;2022-08-21T06:53:57;6.50;;;2.90;;
64011;SDS011;50211;52.768;12.124;2022-08-21T06:56:23;9.75;;;3.35;;
64011;SDS011;50211;52.768;12.124;2022-08-21T06:58:48;4.13;;;2.75;;
64011;SDS011;50211;52.768;12.124;2022-08-21T07:01:14;5.82;;;3.08;;
64011;SDS011;50211;52.768;12.124;2022-08-21T07:03:41;8.48;;;3.05;;
64011;SDS011;50211;52.768;12.124;2022-08-21T07:06:08;5.22;;;2.70;;
64011;SDS011;50211;52.768;12.124;2022-08-21T07:08:35;5.43;;;2.50;;
64011;SDS011;50211;52.768;12.124;2022-08-21T07:11:02;5.28;;;2.67;;
64011;SDS011;50211;52.768;12.124;2022-08-21T07:13:34;11.80;;;2.72;;
64011;SDS011;50211;52.768;12.124;2022-08-21T07:15:59;7.07;;;2.72;;
64011;SDS011;50211;52.768;12.124;2022-08-21T07:18:24;7.97;;;2.75;;
64011;SDS011;50211;52.768;12.124;2022-08-21T07:20:50;7.20;;;2.47;;
64011;SDS011;50211;52.768;12.124;2022-08-21T07:23:21;5.97;;;2.33;;
64011;SDS011;50211;52.768;12.124;2022-08-21T07:25:51;7.85;;;2.50;;
64011;SDS011;50211;52.768;12.124;2022-08-21T07:28:16;7.15;;;2.95;;
64011;SDS011;50211;52.768;12.124;2022-08-21T07:30:42;6.50;;;2.63;;
64011;SDS011;50211;52.768;12.124;2022-08-21T07:33:07;10.82;;;2.40;;
64011;SDS011;50211;52.768;12.124;2022-08-21T07:35:33;6.70;;;2.83;;
64011;SDS011;50211;52.768;12.124;2022-08-21T07:37:59;4.75;;;2.30;;
64011;SDS011;50211;52.768;12.124;2022-08-21T07:40:24;3.42;;;2.50;;
64011;SDS011;50211;52.768;12.124;2022-08-21T07:42:50;4.60;;;2.38;;
64011;SDS011;50211;52.768;12.124;2022-08-21T07:45:17;12.02;;;2.95;;
64011;SDS011;50211;52.768;12.124;2022-08-21T07:47:44;6.63;;;2.50;;
64011;SDS011;50211;52.768;12.124;2022-08-21T07:50:11;9.48;;;2.40;;
64011;SDS011;50211;52.768;12.124;2022-08-21T07:52:37;5.30;;;2.47;;
64011;SDS011;50211;52.768;12.124;2022-08-21T07:55:03;7.97;;;2.65;;
64011;SDS011;50211;52.768;12.124;2022-08-21T07:57:29;5.30;;;2.40;;
64011;SDS011;50211;52.768;12.124;2022-08-21T07:59:55;9.02;;;2.30;;
64011;SDS011;50211;52.768;12.124;2022-08-21T08:02:24;4.65;;;2.00;;
64011;SDS011;50211;52.768;12.124;2022-08-21T08:04:50;6.20;;;2.00;;
64011;SDS011;50211;52.768;12.124;2022-08-21T08:07:16;4.43;;;2.03;;
64011;SDS011;50211;52.768;12.124;2022-08-21T08:09:42;6.03;;;1.67;;
64011;SDS011;50211;52.768;12.124;2022-08-21T08:12:08;6.65;;;1.48;;
64011;SDS011;50211;52.768;12.124;2022-08-21T08:14:33;4.97;;;1.80;;
64011;SDS011;50211;52.768;12.124;2022-08-21T08:16:59;7.55;;;1.80;;
64011;SDS011;50211;52.768;12.124;2022-08-21T08:19:25;4.13;;;1.70;;
64011;SDS011;50211;52.768;12.124;2022-08-21T08:21:50;5.78;;;1.55;;
64011;SDS011;50211;52.768;12.124;2022-08-21T08:24:16;9.10;;;1.45;;
64011;SDS011;50211;52.768;12.124;2022-08-21T08:26:41;5.35;;;1.70;;
64011;SDS011;50211;52.768;12.124;2022-08-21T08:29:07;6.07;;;1.70;;
64011;SDS011;50211;52.768;12.124;2022-08-21T08:31:33;7.45;;;1.70;;
64011;SDS011;50211;52.768;12.124;2022-08-21T08:33:58;4.32;;;1.30;;
64011;SDS011;50211;52.768;12.124;2022-08-21T08:36:31;6.00;;;1.80;;
64011;SDS011;50211;52.768;12.124;2022-08-21T08:38:58;4.53;;;1.80;;
64011;SDS011;50211;52.768;12.124;2022-08-21T08:41:24;4.30;;;1.48;;
64011;SDS011;50211;52.768;12.124;2022-08-21T08:43:50;3.22;;;1.60;;
64011;SDS011;50211;52.768;12.124;2022-08-21T08:46:19;7.93;;;1.70;;
64011;SDS011;50211;52.768;12.124;2022-08-21T08:51:53;6.88;;;3.08;;
64011;SDS011;50211;52.768;12.124;2022-08-21T08:54:25;6.63;;;2.97;;
64011;SDS011;50211;52.768;12.124;2022-08-21T08:56:58;6.82;;;1.88;;
64011;SDS011;50211;52.768;12.124;2022-08-21T08:59:41;11.00;;;1.70;;
64011;SDS011;50211;52.768;12.124;2022-08-21T09:02:10;8.38;;;2.10;;
64011;SDS011;50211;52.768;12.124;2022-08-21T09:04:37;3.30;;;1.58;;
64011;SDS011;50211;52.768;12.124;2022-08-21T09:07:10;6.30;;;1.90;;
64011;SDS011;50211;52.768;12.124;2022-08-21T09:09:55;1.77;;;1.00;;
64011;SDS011;50211;52.768;12.124;2022-08-21T09:20:40;3.42;;;1.42;;
64011;SDS011;50211;52.768;12.124;2022-08-21T09:23:25;6.85;;;1.30;;
64011;SDS011;50211;52.768;12.124;2022-08-21T09:28:40;7.28;;;2.55;;
64011;SDS011;50211;52.768;12.124;2022-08-21T09:31:07;7.57;;;1.88;;
64011;SDS011;50211;52.768;12.124;2022-08-21T09:33:50;3.47;;;1.90;;
64011;SDS011;50211;52.768;12.124;2022-08-21T09:36:30;9.00;;;2.60;;
64011;SDS011;50211;52.768;12.124;2022-08-21T09:38:59;7.35;;;1.75;;
64011;SDS011;50211;52.768;12.124;2022-08-21T09:41:29;3.58;;;1.30;;
64011;SDS011;50211;52.768;12.124;2022-08-21T09:43:56;8.65;;;1.77;;
64011;SDS011;50211;52.768;12.124;2022-08-21T09:46:25;4.88;;;1.30;;
64011;SDS011;50211;52.768;12.124;2022-08-21T09:48:53;6.60;;;1.80;;
64011;SDS011;50211;52.768;12.124;2022-08-21T09:51:22;5.28;;;1.83;;
64011;SDS011;50211;52.768;12.124;2022-08-21T09:56:32;3.88;;;1.42;;
64011;SDS011;50211;52.768;12.124;2022-08-21T09:59:26;4.82;;;1.67;;
64011;SDS011;50211;52.768;12.124;2022-08-21T10:01:57;12.52;;;1.55;;
64011;SDS011;50211;52.768;12.124;2022-08-21T10:04:30;6.22;;;1.63;;
64011;SDS011;50211;52.768;12.124;2022-08-21T10:07:12;6.15;;;2.05;;
64011;SDS011;50211;52.768;12.124;2022-08-21T10:09:39;8.77;;;1.63;;
64011;SDS011;50211;52.768;12.124;2022-08-21T10:12:08;5.30;;;1.52;;
64011;SDS011;50211;52.768;12.124;2022-08-21T10:17:51;9.02;;;2.15;;
64011;SDS011;50211;52.768;12.124;2022-08-21T10:20:30;5.32;;;1.83;;
64011;SDS011;50211;52.768;12.124;2022-08-21T10:26:29;5.88;;;1.67;;
64011;SDS011;50211;52.768;12.124;2022-08-21T10:29:02;5.45;;;1.95;;
64011;SDS011;50211;52.768;12.124;2022-08-21T10:45:31;7.63;;;1.70;;
64011;SDS011;50211;52.768;12.124;2022-08-21T10:48:07;2.88;;;1.40;;
64011;SDS011;50211;52.768;12.124;2022-08-21T10:50:48;6.93;;;1.98;;
64011;SDS011;50211;52.768;12.124;2022-08-21T10:53:45;8.63;;;1.60;;
64011;SDS011;50211;52.768;12.124;2022-08-21T10:56:19;5.38;;;1.52;;
64011;SDS011;50211;52.768;12.124;2022-08-21T11:04:20;5.57;;;1.67;;
64011;SDS011;50211;52.768;12.124;2022-08-21T11:06:53;6.32;;;1.90;;
64011;SDS011;50211;52.768;12.124;2022-08-21T11:09:35;4.13;;;1.60;;
64011;SDS011;50211;52.768;12.124;2022-08-21T11:12:03;7.10;;;1.40;;
64011;SDS011;50211;52.768;12.124;2022-08-21T11:14:54;5.72;;;1.70;;
64011;SDS011;50211;52.768;12.124;2022-08-21T11:17:30;4.95;;;1.88;;
64011;SDS011;50211;52.768;12.124;2022-08-21T11:20:10;8.07;;;1.75;;
64011;SDS011;50211;52.768;12.124;2022-08-21T11:22:42;5.15;;;2.03;;
64011;SDS011;50211;52.768;12.124;2022-08-21T11:30:21;7.57;;;2.10;;
64011;SDS011;50211;52.768;12.124;2022-08-21T11:33:05;8.38;;;2.00;;
64011;SDS011;50211;52.768;12.124;2022-08-21T11:36:02;5.93;;;1.80;;
64011;SDS011;50211;52.768;12.124;2022-08-21T11:38:41;5.22;;;2.13;;
64011;SDS011;50211;52.768;12.124;2022-08-21T11:44:02;6.20;;;1.60;;
64011;SDS011;50211;52.768;12.124;2022-08-21T11:47:11;5.63;;;1.70;;
64011;SDS011;50211;52.768;12.124;2022-08-21T11:52:40;5.18;;;1.80;;
64011;SDS011;50211;52.768;12.124;2022-08-21T11:55:15;10.73;;;1.60;;
64011;SDS011;50211;52.768;12.124;2022-08-21T11:58:11;5.20;;;1.95;;
64011;SDS011;50211;52.768;12.124;2022-08-21T12:00:47;4.63;;;1.90;;
64011;SDS011;50211;52.768;12.124;2022-08-21T12:03:29;12.10;;;2.05;;
64011;SDS011;50211;52.768;12.124;2022-08-21T12:06:00;6.22;;;2.17;;
64011;SDS011;50211;52.768;12.124;2022-08-21T12:08:31;4.70;;;1.98;;
64011;SDS011;50211;52.768;12.124;2022-08-21T12:13:53;4.45;;;1.92;;
64011;SDS011;50211;52.768;12.124;2022-08-21T12:16:35;3.85;;;1.63;;
64011;SDS011;50211;52.768;12.124;2022-08-21T12:19:06;6.25;;;1.75;;
64011;SDS011;50211;52.768;12.124;2022-08-21T12:27:01;6.43;;;1.98;;
64011;SDS011;50211;52.768;12.124;2022-08-21T12:29:45;5.00;;;1.80;;
64011;SDS011;50211;52.768;12.124;2022-08-21T12:34:40;8.20;;;2.28;;
64011;SDS011;50211;52.768;12.124;2022-08-21T12:37:22;4.13;;;1.88;;
64011;SDS011;50211;52.768;12.124;2022-08-21T12:39:55;6.20;;;1.80;;
64011;SDS011;50211;52.768;12.124;2022-08-21T12:42:33;4.20;;;1.92;;
64011;SDS011;50211;52.768;12.124;2022-08-21T12:47:58;5.47;;;2.20;;
64011;SDS011;50211;52.768;12.124;2022-08-21T12:50:37;4.80;;;1.92;;
64011;SDS011;50211;52.768;12.124;2022-08-21T12:53:10;6.95;;;1.92;;
64011;SDS011;50211;52.768;12.124;2022-08-21T12:55:51;6.90;;;2.25;;
64011;SDS011;50211;52.768;12.124;2022-08-21T12:58:19;3.60;;;1.88;;
64011;SDS011;50211;52.768;12.124;2022-08-21T13:00:59;5.10;;;2.00;;
64011;SDS011;50211;52.768;12.124;2022-08-21T13:03:45;4.32;;;1.63;;
64011;SDS011;50211;52.768;12.124;2022-08-21T13:06:15;5.28;;;1.88;;
64011;SDS011;50211;52.768;12.124;2022-08-21T13:08:43;4.95;;;1.65;;
64011;SDS011;50211;52.768;12.124;2022-08-21T13:11:10;3.97;;;1.38;;
64011;SDS011;50211;52.768;12.124;2022-08-21T13:13:50;6.68;;;1.95;;
64011;SDS011;50211;52.768;12.124;2022-08-21T13:16:24;5.03;;;1.80;;
64011;SDS011;50211;52.768;12.124;2022-08-21T13:19:03;7.20;;;1.60;;
64011;SDS011;50211;52.768;12.124;2022-08-21T13:21:32;5.13;;;1.63;;
64011;SDS011;50211;52.768;12.124;2022-08-21T13:24:14;5.15;;;1.63;;
64011;SDS011;50211;52.768;12.124;2022-08-21T13:26:40;2.80;;;1.60;;
64011;SDS011;50211;52.768;12.124;2022-08-21T13:29:10;4.00;;;1.35;;
64011;SDS011;50211;52.768;12.124;2022-08-21T13:31:37;3.40;;;1.38;;
64011;SDS011;50211;52.768;12.124;2022-08-21T13:34:07;9.90;;;1.80;;
64011;SDS011;50211;52.768;12.124;2022-08-21T13:36:36;8.35;;;2.15;;
64011;SDS011;50211;52.768;12.124;2022-08-21T13:39:06;5.55;;;1.73;;
64011;SDS011;50211;52.768;12.124;2022-08-21T13:41:36;4.00;;;1.60;;
64011;SDS011;50211;52.768;12.124;2022-08-21T13:44:51;7.50;;;1.65;;
64011;SDS011;50211;52.768;12.124;2022-08-21T13:47:00;7.70;;;1.70;;
64011;SDS011;50211;52.768;12.124;2022-08-21T13:49:30;6.30;;;1.50;;
64011;SDS011;50211;52.768;12.124;2022-08-21T13:52:16;8.60;;;1.67;;
64011;SDS011;50211;52.768;12.124;2022-08-21T13:54:51;3.80;;;1.80;;
64011;SDS011;50211;52.768;12.124;2022-08-21T13:57:24;5.20;;;2.00;;
64011;SDS011;50211;52.768;12.124;2022-08-21T13:59:52;7.25;;;1.50;;
64011;SDS011;50211;52.768;12.124;2022-08-21T14:02:18;6.63;;;1.83;;
64011;SDS011;50211;52.768;12.124;2022-08-21T14:04:57;5.18;;;1.48;;
64011;SDS011;50211;52.768;12.124;2022-08-21T14:07:28;4.50;;;1.40;;
64011;SDS011;50211;52.768;12.124;2022-08-21T14:09:59;6.65;;;1.85;;
64011;SDS011;50211;52.768;12.124;2022-08-21T14:12:28;9.32;;;1.63;;
64011;SDS011;50211;52.768;12.124;2022-08-21T14:15:03;2.58;;;1.60;;
64011;SDS011;50211;52.768;12.124;2022-08-21T14:20:00;3.70;;;1.38;;
64011;SDS011;50211;52.768;12.124;2022-08-21T14:22:32;5.18;;;1.55;;
64011;SDS011;50211;52.768;12.124;2022-08-21T14:27:48;7.40;;;1.60;;
64011;SDS011;50211;52.768;12.124;2022-08-21T14:30:34;7.03;;;1.50;;
64011;SDS011;50211;52.768;12.124;2022-08-21T14:33:03;5.20;;;1.63;;
64011;SDS011;50211;52.768;12.124;2022-08-21T14:35:32;4.28;;;1.33;;
64011;SDS011;50211;52.768;12.124;2022-08-21T14:37:57;7.20;;;1.38;;
64011;SDS011;50211;52.768;12.124;2022-08-21T14:40:23;7.32;;;1.77;;
64011;SDS011;50211;52.768;12.124;2022-08-21T14:42:50;5.45;;;1.60;;
64011;SDS011;50211;52.768;12.124;2022-08-21T14:45:18;8.25;;;1.98;;
64011;SDS011;50211;52.768;12.124;2022-08-21T14:47:44;6.00;;;1.70;;
64011;SDS011;50211;52.768;12.124;2022-08-21T14:50:11;4.20;;;1.38;;
64011;SDS011;50211;52.768;12.124;2022-08-21T14:52:37;3.35;;;1.52;;
64011;SDS011;50211;52.768;12.124;2022-08-21T14:55:04;5.82;;;1.50;;
64011;SDS011;50211;52.768;12.124;2022-08-21T14:57:31;3.80;;;1.50;;
64011;SDS011;50211;52.768;12.124;2022-08-21T14:59:57;2.08;;;1.45;;
64011;SDS011;50211;52.768;12.124;2022-08-21T15:02:24;3.90;;;1.50;;
64011;SDS011;50211;52.768;12.124;2022-08-21T15:04:50;4.32;;;1.30;;
64011;SDS011;50211;52.768;12.124;2022-08-21T15:07:15;5.72;;;1.80;;
64011;SDS011;50211;52.768;12.124;2022-08-21T15:09:41;4.60;;;1.50;;
64011;SDS011;50211;52.768;12.124;2022-08-21T15:12:06;5.22;;;1.63;;
64011;SDS011;50211;52.768;12.124;2022-08-21T15:14:33;4.03;;;1.60;;
64011;SDS011;50211;52.768;12.124;2022-08-21T15:17:02;14.77;;;2.13;;
64011;SDS011;50211;52.768;12.124;2022-08-21T15:19:30;3.33;;;1.52;;
64011;SDS011;50211;52.768;12.124;2022-08-21T15:21:56;6.63;;;1.60;;
64011;SDS011;50211;52.768;12.124;2022-08-21T15:24:22;4.75;;;1.70;;
64011;SDS011;50211;52.768;12.124;2022-08-21T15:26:48;6.85;;;1.80;;
64011;SDS011;50211;52.768;12.124;2022-08-21T15:29:14;2.92;;;1.38;;
64011;SDS011;50211;52.768;12.124;2022-08-21T15:31:49;4.10;;;1.42;;
64011;SDS011;50211;52.768;12.124;2022-08-21T15:34:17;3.00;;;1.40;;
64011;SDS011;50211;52.768;12.124;2022-08-21T15:36:43;3.42;;;1.40;;
64011;SDS011;50211;52.768;12.124;2022-08-21T15:39:08;4.32;;;1.50;;
64011;SDS011;50211;52.768;12.124;2022-08-21T15:41:34;5.47;;;1.48;;
64011;SDS011;50211;52.768;12.124;2022-08-21T15:43:59;4.15;;;1.60;;
64011;SDS011;50211;52.768;12.124;2022-08-21T15:46:25;4.32;;;1.50;;
64011;SDS011;50211;52.768;12.124;2022-08-21T15:48:50;5.75;;;1.83;;
64011;SDS011;50211;52.768;12.124;2022-08-21T15:51:16;3.60;;;1.70;;
64011;SDS011;50211;52.768;12.124;2022-08-21T15:53:42;1.75;;;1.30;;
64011;SDS011;50211;52.768;12.124;2022-08-21T15:56:17;5.15;;;1.52;;
64011;SDS011;50211;52.768;12.124;2022-08-21T15:58:50;4.18;;;1.60;;